createdAt,value
2022-08-05T00:00:49.947Z,78.65
2022-08-05T00:15:55.756Z,82.02
2022-08-05T00:30:52.143Z,82.45
2022-08-05T00:45:54.287Z,83.95
2022-08-05T01:00:55.344Z,84.49
2022-08-05T01:15:55.617Z,85.13
2022-08-05T01:30:58.737Z,86.13
2022-08-05T01:45:58.884Z,87.61
2022-08-05T02:01:04.077Z,88.37
2022-08-05T02:16:04.322Z,89.36
2022-08-05T02:31:04.491Z,89.76
2022-08-05T02:46:04.576Z,90.61
2022-08-05T03:01:04.813Z,91.60
2022-08-05T03:16:05.417Z,92.55
2022-08-05T03:31:09.605Z,93.05
2022-08-05T03:46:14.709Z,93.69
2022-08-05T04:01:14.957Z,93.65
2022-08-05T04:16:15.020Z,93.44
2022-08-05T04:31:15.989Z,92.06
2022-08-05T04:46:28.479Z,90.62
2022-08-05T05:02:05.782Z,88.13
2022-08-05T05:16:30.390Z,85.36
2022-08-05T05:31:35.723Z,85.72
2022-08-05T05:46:35.622Z,85.78
2022-08-05T06:01:40.825Z,89.40
2022-08-05T06:16:45.984Z,94.07
2022-08-05T06:31:47.164Z,93.74
2022-08-05T06:46:50.818Z,93.83
2022-08-05T07:01:53.031Z,93.73
2022-08-05T07:18:00.755Z,92.89
2022-08-05T07:31:58.865Z,94.43
2022-08-05T07:47:07.880Z,99.99
2022-08-05T08:02:15.306Z,99.99
2022-08-05T08:17:16.250Z,99.64
2022-08-05T08:32:27.770Z,98.65
2022-08-05T08:48:06.980Z,96.10
2022-08-05T09:02:30.199Z,99.95
2022-08-05T09:17:42.927Z,99.99
2022-08-05T09:32:46.045Z,99.99
2022-08-05T09:47:55.248Z,99.99
2022-08-05T10:02:45.850Z,98.69
2022-08-05T10:17:56.818Z,98.80
2022-08-05T10:33:01.849Z,99.99
2022-08-05T10:48:31.005Z,97.33
2022-08-05T11:03:24.234Z,88.00
2022-08-05T11:18:12.243Z,79.95
2022-08-05T11:33:20.878Z,73.69
2022-08-05T11:48:18.298Z,72.69
2022-08-05T12:03:29.284Z,72.89
2022-08-05T12:18:27.419Z,69.64
2022-08-05T12:33:37.200Z,66.83
2022-08-05T12:48:36.170Z,66.76
2022-08-05T13:03:41.655Z,69.15
2022-08-05T13:19:13.739Z,70.01
2022-08-05T13:34:22.109Z,70.70
2022-08-05T13:49:23.213Z,69.74
2022-08-05T14:04:26.761Z,70.87
2022-08-05T14:19:27.125Z,70.18
2022-08-05T14:34:29.342Z,75.18
2022-08-05T14:49:59.704Z,76.91
2022-08-05T15:04:39.682Z,81.29
2022-08-05T15:19:48.984Z,85.68
2022-08-05T15:34:49.651Z,85.40
2022-08-05T15:49:56.673Z,86.19
2022-08-05T16:04:56.904Z,89.56
2022-08-05T16:20:05.242Z,91.24
2022-08-05T16:35:04.269Z,90.47
2022-08-05T16:50:06.604Z,90.20
2022-08-05T17:05:08.881Z,91.38
2022-08-05T17:20:12.217Z,90.86
2022-08-05T17:35:15.678Z,97.57
2022-08-05T17:50:29.005Z,95.90
2022-08-05T18:05:27.969Z,92.73
2022-08-05T18:20:29.316Z,88.90
2022-08-05T18:36:01.197Z,84.91
2022-08-05T18:50:44.845Z,86.16
2022-08-05T19:06:11.945Z,83.59
2022-08-05T19:20:50.682Z,85.14
2022-08-05T19:35:56.724Z,87.09
2022-08-05T19:50:58.018Z,90.66
2022-08-05T20:05:59.122Z,92.62
2022-08-05T20:21:06.796Z,93.82
2022-08-05T20:36:07.379Z,97.50
2022-08-05T20:51:10.559Z,99.67
2022-08-05T21:06:28.555Z,99.99
2022-08-05T21:21:18.854Z,99.99
2022-08-05T21:36:29.883Z,99.99
2022-08-05T21:52:21.710Z,99.99
2022-08-05T22:06:39.783Z,99.99
2022-08-05T22:21:40.596Z,99.99
2022-08-05T22:36:44.644Z,99.99
2022-08-05T22:52:04.911Z,99.99
2022-08-05T23:06:54.994Z,99.99
2022-08-05T23:21:56.992Z,99.99
2022-08-05T23:36:59.328Z,99.99
2022-08-05T23:51:59.979Z,99.99
